Time;durP1;ratioP1;P1;durP2;ratioP2;P2;SDS_P1;SDS_P2;PMS_P1;PMS_P2;Temp;Humidity;BMP_temperature;BMP_pressure;BME280_temperature;BME280_humidity;BME280_pressure;Samples;Min_cycle;Max_cycle;Signal;HPM_P1;HPM_P2
2022/04/30 00:00:34;;;;;;;12.15;9.88;;;10.70;65.30;;;;;;5056573;28;20110;-65
2022/04/30 00:03:00;;;;;;;15.02;10.13;;;10.70;65.40;;;;;;5055938;28;20112;-65
2022/04/30 00:05:32;;;;;;;16.17;10.85;;;10.60;65.30;;;;;;5054527;28;20559;-65
2022/04/30 00:07:58;;;;;;;11.77;10.38;;;10.60;65.70;;;;;;5054701;28;20519;-65
2022/04/30 00:10:23;;;;;;;10.73;9.15;;;10.60;65.50;;;;;;5052692;28;20037;-65
2022/04/30 00:12:49;;;;;;;11.15;9.52;;;10.60;65.50;;;;;;5052943;28;20039;-63
2022/04/30 00:15:15;;;;;;;11.40;10.07;;;10.60;65.70;;;;;;5053545;28;20378;-65
2022/04/30 00:17:41;;;;;;;13.18;9.85;;;10.60;65.80;;;;;;5050569;28;20048;-66
2022/04/30 00:20:08;;;;;;;12.63;9.43;;;10.60;66.00;;;;;;5055453;28;20037;-65
2022/04/30 00:22:34;;;;;;;11.68;9.88;;;10.60;66.00;;;;;;5058566;28;20053;-65
2022/04/30 00:24:59;;;;;;;15.20;10.10;;;10.70;65.80;;;;;;5057467;28;20037;-65
2022/04/30 00:27:25;;;;;;;13.00;10.15;;;10.60;65.70;;;;;;5056205;28;20114;-65
2022/04/30 00:29:52;;;;;;;13.43;9.90;;;10.60;65.80;;;;;;5058238;28;20120;-65
2022/04/30 00:32:18;;;;;;;14.50;11.02;;;10.60;65.90;;;;;;5056715;28;20367;-64
2022/04/30 00:34:43;;;;;;;15.27;10.98;;;10.60;65.90;;;;;;5057181;28;20094;-65
2022/04/30 00:37:09;;;;;;;13.43;10.77;;;10.50;65.90;;;;;;5056062;28;21580;-65
2022/04/30 00:39:35;;;;;;;12.48;10.50;;;10.60;66.00;;;;;;5057820;28;20110;-64
2022/04/30 00:42:01;;;;;;;12.77;9.52;;;10.60;66.10;;;;;;5056471;28;20115;-65
2022/04/30 00:44:30;;;;;;;10.95;9.73;;;10.50;66.00;;;;;;5056458;28;20025;-67
2022/04/30 00:46:56;;;;;;;12.60;10.07;;;10.50;66.00;;;;;;5055354;28;20226;-65
2022/04/30 00:49:21;;;;;;;14.25;9.75;;;10.50;66.10;;;;;;5057049;28;20507;-63
2022/04/30 00:51:49;;;;;;;13.82;9.90;;;10.50;66.10;;;;;;5054690;28;20058;-65
2022/04/30 00:54:18;;;;;;;12.15;9.90;;;10.50;66.10;;;;;;5055800;28;20516;-65
2022/04/30 00:56:58;;;;;;;13.35;10.30;;;10.60;66.20;;;;;;5055596;28;20171;-65
2022/04/30 00:59:25;;;;;;;11.25;10.07;;;10.60;66.90;;;;;;5060652;28;20042;-66
2022/04/30 01:01:51;;;;;;;15.55;10.40;;;10.60;66.00;;;;;;5059352;28;20314;-65
2022/04/30 01:04:18;;;;;;;11.68;9.95;;;10.60;66.00;;;;;;5055588;28;20509;-65
2022/04/30 01:06:51;;;;;;;14.95;10.52;;;10.50;66.10;;;;;;5056106;28;20505;-64
2022/04/30 01:09:20;;;;;;;15.35;9.20;;;10.50;66.60;;;;;;5070762;28;20064;-63
2022/04/30 01:11:53;;;;;;;13.77;10.07;;;10.60;66.40;;;;;;5056259;28;20044;-64
2022/04/30 01:14:19;;;;;;;15.10;10.32;;;10.60;66.40;;;;;;5060051;28;20060;-65
2022/04/30 01:16:46;;;;;;;14.10;10.95;;;10.50;66.40;;;;;;5054734;28;20620;-66
2022/04/30 01:19:18;;;;;;;14.30;11.30;;;10.60;66.50;;;;;;5060622;28;20028;-65
2022/04/30 01:21:48;;;;;;;13.48;11.23;;;10.50;66.70;;;;;;5057456;28;20394;-65
2022/04/30 01:24:17;;;;;;;11.95;10.52;;;10.50;66.70;;;;;;5059108;28;20094;-65
2022/04/30 01:26:43;;;;;;;13.82;10.68;;;10.40;66.70;;;;;;5055323;28;20037;-66
2022/04/30 01:29:08;;;;;;;12.95;10.25;;;10.40;66.80;;;;;;5058402;28;20029;-65
2022/04/30 01:37:25;;;;;;;12.35;10.57;;;10.40;66.80;;;;;;5055050;28;20558;-65
2022/04/30 01:39:55;;;;;;;15.60;10.50;;;10.40;66.90;;;;;;5056079;28;20482;-65
2022/04/30 01:42:22;;;;;;;11.85;10.50;;;10.40;67.40;;;;;;5056770;28;20037;-65
2022/04/30 01:44:48;;;;;;;14.15;11.18;;;10.30;67.10;;;;;;5056236;28;20044;-65
2022/04/30 01:47:15;;;;;;;12.20;10.20;;;10.30;67.20;;;;;;5055476;28;20500;-65
2022/04/30 01:49:41;;;;;;;13.05;10.57;;;10.30;67.40;;;;;;5053908;28;20036;-65
2022/04/30 01:52:10;;;;;;;14.48;11.20;;;10.30;67.40;;;;;;5055663;28;20641;-65
2022/04/30 01:54:36;;;;;;;12.50;10.02;;;10.30;67.40;;;;;;5053554;28;20450;-66
2022/04/30 01:57:02;;;;;;;13.50;10.27;;;10.40;67.40;;;;;;5054715;28;20032;-65
2022/04/30 01:59:28;;;;;;;12.98;10.77;;;10.30;67.30;;;;;;5057722;28;20028;-65
2022/04/30 02:01:55;;;;;;;13.15;11.07;;;10.30;67.30;;;;;;5054896;28;20556;-65
2022/04/30 02:04:22;;;;;;;14.73;10.90;;;10.30;67.60;;;;;;5058120;28;20098;-66
2022/04/30 02:06:49;;;;;;;12.55;10.27;;;10.30;67.50;;;;;;5051467;28;20044;-63
2022/04/30 02:09:15;;;;;;;13.18;10.48;;;10.30;67.40;;;;;;5055405;28;20052;-64
2022/04/30 02:11:44;;;;;;;11.90;10.02;;;10.40;67.70;;;;;;5054641;28;20032;-65
2022/04/30 02:14:14;;;;;;;11.90;10.02;;;10.40;67.80;;;;;;5057126;28;20422;-66
2022/04/30 02:16:42;;;;;;;12.63;10.23;;;10.50;68.10;;;;;;5053473;28;20029;-65
2022/04/30 02:19:08;;;;;;;12.57;9.73;;;10.50;67.80;;;;;;5054524;28;20028;-66
2022/04/30 02:21:35;;;;;;;12.70;10.35;;;10.50;67.60;;;;;;5055852;28;20052;-65
2022/04/30 02:24:03;;;;;;;12.23;10.20;;;10.60;67.70;;;;;;5054531;28;20157;-65
2022/04/30 02:26:29;;;;;;;12.82;10.55;;;10.60;67.80;;;;;;5055975;28;20061;-65
2022/04/30 02:28:57;;;;;;;10.82;9.63;;;10.60;67.70;;;;;;5055464;28;20032;-65
2022/04/30 02:31:24;;;;;;;11.63;10.27;;;10.70;67.70;;;;;;5056321;28;20453;-65
2022/04/30 02:33:49;;;;;;;13.27;10.60;;;10.80;67.70;;;;;;5054222;28;20113;-66
2022/04/30 02:36:15;;;;;;;12.38;9.98;;;10.80;67.40;;;;;;5052359;28;20036;-65
2022/04/30 02:38:42;;;;;;;14.60;10.82;;;10.80;67.30;;;;;;5055413;28;20035;-65
2022/04/30 02:41:08;;;;;;;14.73;10.90;;;10.90;67.40;;;;;;5054664;28;20065;-65
2022/04/30 02:43:33;;;;;;;12.90;9.93;;;10.90;67.40;;;;;;5051551;28;20032;-65
2022/04/30 02:45:59;;;;;;;11.60;9.85;;;10.90;67.10;;;;;;5053034;28;20531;-65
2022/04/30 02:48:25;;;;;;;12.15;10.07;;;11.00;67.00;;;;;;5054049;28;20406;-65
2022/04/30 02:50:53;;;;;;;13.65;10.73;;;11.00;67.20;;;;;;5051241;28;20056;-65
2022/04/30 02:53:19;;;;;;;12.90;10.48;;;11.00;67.10;;;;;;5056183;28;20072;-65
2022/04/30 02:55:45;;;;;;;11.93;10.60;;;10.90;67.30;;;;;;5052650;28;20573;-65
2022/04/30 03:00:55;;;;;;;14.50;11.10;;;10.90;67.40;;;;;;5052515;28;20097;-66
2022/04/30 03:03:21;;;;;;;14.63;12.32;;;10.90;67.40;;;;;;5053144;28;20048;-65
2022/04/30 03:05:50;;;;;;;16.67;13.05;;;10.90;68.00;;;;;;5050748;28;21450;-64
2022/04/30 03:08:22;;;;;;;14.23;12.15;;;10.90;68.30;;;;;;5050537;28;20032;-65
2022/04/30 03:10:50;;;;;;;19.30;12.77;;;10.90;68.30;;;;;;5049335;28;20043;-65
2022/04/30 03:13:20;;;;;;;16.98;12.35;;;10.80;68.30;;;;;;5054183;28;20029;-65
2022/04/30 03:15:47;;;;;;;17.10;13.10;;;10.80;68.30;;;;;;5052899;28;20149;-65
2022/04/30 03:23:39;;;;;;;16.83;13.55;;;10.80;68.40;;;;;;5053761;28;20041;-65
2022/04/30 03:26:06;;;;;;;15.82;13.35;;;10.80;68.50;;;;;;5051591;28;20036;-65
2022/04/30 03:28:32;;;;;;;18.48;13.32;;;10.80;68.50;;;;;;5052274;28;20066;-64
2022/04/30 03:30:58;;;;;;;14.75;12.70;;;10.80;68.50;;;;;;5053668;28;20529;-66
2022/04/30 03:33:25;;;;;;;17.33;13.80;;;10.80;68.60;;;;;;5052112;28;20452;-65
2022/04/30 03:35:51;;;;;;;16.15;12.80;;;10.80;68.60;;;;;;5052605;28;20037;-65
2022/04/30 03:38:17;;;;;;;19.00;13.30;;;10.70;68.50;;;;;;5051422;28;20110;-65
2022/04/30 03:40:43;;;;;;;15.52;13.43;;;10.80;68.60;;;;;;5053413;28;20054;-65
2022/04/30 03:43:09;;;;;;;17.42;12.70;;;10.70;68.60;;;;;;5053119;28;20064;-65
2022/04/30 03:45:35;;;;;;;14.20;12.07;;;10.70;68.60;;;;;;5055002;28;20085;-65
2022/04/30 03:48:00;;;;;;;16.58;13.18;;;10.70;68.50;;;;;;5050961;28;20129;-66
2022/04/30 03:50:26;;;;;;;18.13;13.65;;;10.70;68.80;;;;;;5053683;28;20120;-66
2022/04/30 03:52:52;;;;;;;16.15;13.05;;;10.70;68.80;;;;;;5053437;28;20048;-65
2022/04/30 03:55:18;;;;;;;16.83;12.43;;;10.80;69.60;;;;;;5055651;28;20542;-64
2022/04/30 03:57:44;;;;;;;18.17;13.13;;;10.80;68.60;;;;;;5056880;28;20036;-65
2022/04/30 04:00:11;;;;;;;14.70;12.40;;;10.80;68.70;;;;;;5055646;28;20297;-65
2022/04/30 04:02:40;;;;;;;16.08;12.40;;;10.90;68.60;;;;;;5056540;28;20028;-65
2022/04/30 04:05:08;;;;;;;15.50;12.82;;;10.90;68.50;;;;;;5056579;28;20055;-65
2022/04/30 04:07:33;;;;;;;15.45;12.23;;;11.00;68.50;;;;;;5055099;28;20569;-64
2022/04/30 04:09:59;;;;;;;14.77;12.77;;;11.00;68.30;;;;;;5057896;28;20025;-65
2022/04/30 04:12:25;;;;;;;14.80;12.65;;;11.00;68.10;;;;;;5055364;28;20412;-65
2022/04/30 04:17:38;;;;;;;14.03;12.53;;;11.10;68.40;;;;;;5056947;28;20120;-65
2022/04/30 04:20:09;;;;;;;15.27;12.30;;;11.10;68.30;;;;;;5056069;28;20311;-65
2022/04/30 04:22:35;;;;;;;14.02;11.82;;;11.20;68.60;;;;;;5057987;28;20033;-64
2022/04/30 04:27:46;;;;;;;15.93;12.80;;;11.20;68.20;;;;;;5055975;28;20089;-65
2022/04/30 04:30:12;;;;;;;16.17;12.30;;;11.30;68.10;;;;;;5055762;28;20048;-64
2022/04/30 04:32:38;;;;;;;13.60;11.75;;;11.30;68.10;;;;;;5056031;28;20047;-66
2022/04/30 04:35:04;;;;;;;16.95;12.95;;;11.30;67.80;;;;;;5055158;28;20043;-66
2022/04/30 04:37:31;;;;;;;14.30;12.27;;;11.30;67.70;;;;;;5058836;28;20033;-65
2022/04/30 04:39:57;;;;;;;14.18;11.38;;;11.30;67.60;;;;;;5055206;28;20037;-65
2022/04/30 04:42:23;;;;;;;15.10;12.50;;;11.30;67.60;;;;;;5055674;28;20040;-65
2022/04/30 04:44:49;;;;;;;13.93;12.32;;;11.30;67.60;;;;;;5055695;28;20386;-66
2022/04/30 04:47:15;;;;;;;17.17;12.50;;;11.30;68.30;;;;;;5053027;28;20064;-65
2022/04/30 04:49:42;;;;;;;16.23;12.70;;;11.30;67.40;;;;;;5055667;28;20527;-65
2022/04/30 04:52:11;;;;;;;15.05;11.77;;;11.30;67.60;;;;;;5053972;28;20032;-65
2022/04/30 04:54:37;;;;;;;15.60;12.15;;;11.30;67.50;;;;;;5054053;28;20025;-66
2022/04/30 04:57:03;;;;;;;14.65;11.30;;;11.30;67.30;;;;;;5053936;28;20588;-65
2022/04/30 04:59:29;;;;;;;15.65;11.75;;;11.40;67.50;;;;;;5055599;28;20120;-65
2022/04/30 05:01:55;;;;;;;16.63;12.27;;;11.40;67.50;;;;;;5055600;28;20159;-66
2022/04/30 05:04:20;;;;;;;14.40;11.27;;;11.40;67.40;;;;;;5054940;28;20504;-65
2022/04/30 05:06:48;;;;;;;13.57;11.75;;;11.50;67.30;;;;;;5054839;28;20138;-66
2022/04/30 05:09:14;;;;;;;15.73;11.82;;;11.50;67.20;;;;;;5055573;28;20117;-65
2022/04/30 05:11:39;;;;;;;14.98;11.60;;;11.50;67.10;;;;;;5057399;28;20447;-64
2022/04/30 05:14:06;;;;;;;13.98;10.77;;;11.60;67.10;;;;;;5054432;28;20033;-65
2022/04/30 05:16:31;;;;;;;13.85;11.65;;;11.60;67.00;;;;;;5057065;28;20032;-64
2022/04/30 05:18:57;;;;;;;14.65;11.77;;;11.60;67.00;;;;;;5056631;28;20501;-65
2022/04/30 05:21:23;;;;;;;15.30;12.40;;;11.70;67.10;;;;;;5052962;28;20045;-65
2022/04/30 05:23:49;;;;;;;15.07;12.65;;;11.70;67.20;;;;;;5056335;28;20461;-65
2022/04/30 05:26:15;;;;;;;15.45;12.43;;;11.70;67.10;;;;;;5056820;28;20037;-66
2022/04/30 05:28:40;;;;;;;14.65;12.30;;;11.80;67.10;;;;;;5056626;28;20086;-65
2022/04/30 05:31:06;;;;;;;14.95;11.35;;;11.80;67.20;;;;;;5054543;28;20922;-65
2022/04/30 05:33:34;;;;;;;15.20;11.88;;;11.80;67.20;;;;;;5057175;28;20087;-65
2022/04/30 05:36:01;;;;;;;14.32;11.73;;;11.90;67.40;;;;;;5058001;28;20040;-66
2022/04/30 05:38:27;;;;;;;15.23;12.07;;;11.90;67.50;;;;;;5055926;28;20080;-64
2022/04/30 05:40:52;;;;;;;15.90;12.60;;;11.90;67.40;;;;;;5053178;28;20628;-65
2022/04/30 05:43:18;;;;;;;13.18;11.32;;;11.90;67.80;;;;;;5056176;28;20037;-65
2022/04/30 05:45:44;;;;;;;13.45;11.30;;;12.00;67.90;;;;;;5056887;28;20036;-65
2022/04/30 05:48:09;;;;;;;15.52;11.32;;;12.00;68.00;;;;;;5056887;28;20056;-65
2022/04/30 05:50:35;;;;;;;15.10;11.90;;;12.00;68.10;;;;;;5059253;28;20082;-65
2022/04/30 05:53:00;;;;;;;17.90;13.60;;;12.00;68.10;;;;;;5055807;28;20085;-64
2022/04/30 05:55:26;;;;;;;15.65;12.68;;;12.00;68.50;;;;;;5052624;28;20573;-65
2022/04/30 05:57:52;;;;;;;15.85;12.30;;;12.10;68.60;;;;;;5058266;28;20032;-64
2022/04/30 06:00:18;;;;;;;14.30;11.88;;;12.10;68.90;;;;;;5055706;28;20402;-65
2022/04/30 06:02:43;;;;;;;13.82;11.57;;;12.10;68.80;;;;;;5054272;28;22480;-65
2022/04/30 06:05:09;;;;;;;15.77;11.52;;;12.10;69.00;;;;;;5054519;28;20474;-65
2022/04/30 06:07:36;;;;;;;14.02;11.50;;;12.20;69.20;;;;;;5054630;28;20029;-64
2022/04/30 06:10:04;;;;;;;19.02;12.88;;;12.20;69.30;;;;;;5055889;28;20983;-65
2022/04/30 06:12:29;;;;;;;15.48;12.50;;;12.20;69.40;;;;;;5057824;28;20044;-65
2022/04/30 06:14:55;;;;;;;17.52;12.63;;;12.30;69.60;;;;;;5056192;28;20045;-64
2022/04/30 06:17:21;;;;;;;17.40;12.98;;;12.30;69.70;;;;;;5057607;28;20070;-64
2022/04/30 06:19:46;;;;;;;17.10;13.05;;;12.30;69.90;;;;;;5058036;28;20097;-65
2022/04/30 06:22:12;;;;;;;18.45;13.70;;;12.40;69.70;;;;;;5055619;28;20163;-65
2022/04/30 06:24:38;;;;;;;16.92;13.48;;;12.40;69.80;;;;;;5055460;28;20032;-65
2022/04/30 06:27:04;;;;;;;22.50;14.82;;;12.50;69.90;;;;;;5052167;28;20029;-65
2022/04/30 06:29:29;;;;;;;19.25;14.50;;;12.50;69.90;;;;;;5054103;28;20029;-65
2022/04/30 06:31:56;;;;;;;18.23;13.65;;;12.60;70.00;;;;;;5053595;28;20073;-64
2022/04/30 06:34:22;;;;;;;18.40;13.55;;;12.60;69.90;;;;;;5054950;28;20029;-65
2022/04/30 06:36:48;;;;;;;17.55;13.18;;;12.70;69.70;;;;;;5057874;28;20036;-64
2022/04/30 06:39:13;;;;;;;16.52;13.70;;;12.70;69.60;;;;;;5055038;28;20033;-65
2022/04/30 06:41:39;;;;;;;17.98;14.38;;;12.70;69.70;;;;;;5054525;28;20033;-65
2022/04/30 06:44:05;;;;;;;19.15;14.50;;;12.80;69.70;;;;;;5052516;28;20141;-65
2022/04/30 06:46:31;;;;;;;19.15;14.75;;;12.80;69.70;;;;;;5055212;28;20032;-64
2022/04/30 06:48:58;;;;;;;19.08;15.10;;;12.80;69.90;;;;;;5051916;28;20518;-65
2022/04/30 06:51:23;;;;;;;65.85;36.75;;;12.80;69.80;;;;;;5055785;28;20039;-64
2022/04/30 06:59:40;;;;;;;21.67;15.95;;;12.90;70.70;;;;;;5033859;28;20032;-64
2022/04/30 07:02:07;;;;;;;19.88;16.15;;;13.00;69.70;;;;;;5045191;28;20468;-64
2022/04/30 07:04:33;;;;;;;20.70;17.15;;;13.00;69.80;;;;;;5053339;28;20379;-64
2022/04/30 07:07:00;;;;;;;22.02;16.60;;;13.00;70.00;;;;;;5055584;28;20041;-63
2022/04/30 07:09:32;;;;;;;23.70;16.27;;;13.00;70.20;;;;;;5056994;28;20032;-63
2022/04/30 07:12:04;;;;;;;23.08;17.48;;;13.00;70.40;;;;;;5055628;28;20041;-62
2022/04/30 07:14:36;;;;;;;22.40;17.00;;;13.00;70.70;;;;;;5071432;28;20047;-63
2022/04/30 07:17:06;;;;;;;23.00;18.00;;;13.10;70.60;;;;;;5054547;28;20037;-63
2022/04/30 07:19:32;;;;;;;23.67;17.73;;;13.10;70.90;;;;;;5056164;28;20105;-63
2022/04/30 07:21:58;;;;;;;22.27;17.00;;;13.10;70.70;;;;;;5055218;28;20040;-64
2022/04/30 07:24:23;;;;;;;20.48;16.20;;;13.10;70.90;;;;;;5054680;28;20037;-62
2022/04/30 07:26:49;;;;;;;22.73;17.27;;;13.10;71.10;;;;;;5045459;28;20040;-63
2022/04/30 07:29:15;;;;;;;23.25;17.08;;;13.20;71.30;;;;;;5046510;28;20041;-63
2022/04/30 07:31:40;;;;;;;22.13;17.27;;;13.30;71.20;;;;;;5049732;28;20119;-63
2022/04/30 07:34:09;;;;;;;21.60;16.30;;;13.20;71.00;;;;;;5049827;28;20033;-64
2022/04/30 07:36:35;;;;;;;22.05;15.75;;;13.30;71.00;;;;;;5049370;28;20589;-63
2022/04/30 07:39:00;;;;;;;20.67;16.25;;;13.30;70.70;;;;;;5047566;28;20028;-63
2022/04/30 07:41:26;;;;;;;23.25;16.50;;;13.40;70.60;;;;;;5045999;28;20996;-63
2022/04/30 07:43:52;;;;;;;20.77;15.70;;;13.40;70.50;;;;;;5052416;28;20033;-63
2022/04/30 07:46:17;;;;;;;20.98;16.20;;;13.40;70.50;;;;;;5049888;28;20199;-63
2022/04/30 07:48:43;;;;;;;22.52;15.77;;;13.40;70.50;;;;;;5051351;28;22048;-62
2022/04/30 07:51:14;;;;;;;18.95;15.02;;;13.40;70.60;;;;;;5048963;28;20040;-63
2022/04/30 07:53:41;;;;;;;20.52;15.20;;;13.40;70.80;;;;;;5051558;28;20036;-63
2022/04/30 07:56:08;;;;;;;22.27;16.58;;;13.40;70.90;;;;;;5046885;28;20620;-62
2022/04/30 07:58:33;;;;;;;20.75;16.23;;;13.40;70.90;;;;;;5051675;28;20033;-62
2022/04/30 08:00:59;;;;;;;20.08;15.35;;;13.50;70.90;;;;;;5053828;28;20040;-64
2022/04/30 08:03:25;;;;;;;21.42;15.50;;;13.50;71.00;;;;;;5052258;28;20057;-63
2022/04/30 08:05:50;;;;;;;22.27;16.05;;;13.50;71.00;;;;;;5052135;28;20044;-62
2022/04/30 08:08:16;;;;;;;20.60;16.20;;;13.50;71.20;;;;;;5049500;28;20028;-63
2022/04/30 08:10:42;;;;;;;19.17;16.08;;;13.50;71.40;;;;;;5052795;28;20093;-63
2022/04/30 08:13:07;;;;;;;22.65;16.40;;;13.60;71.60;;;;;;5056434;28;20032;-63
2022/04/30 08:15:34;;;;;;;20.77;16.48;;;13.60;71.40;;;;;;5055249;28;20033;-62
2022/04/30 08:17:59;;;;;;;20.52;16.58;;;13.60;71.40;;;;;;5053764;28;20036;-64
2022/04/30 08:20:25;;;;;;;20.30;16.85;;;13.60;71.60;;;;;;5052058;28;20033;-60
2022/04/30 08:22:51;;;;;;;19.23;15.75;;;13.60;72.00;;;;;;5053574;28;20505;-58
2022/04/30 08:25:17;;;;;;;21.23;16.25;;;13.50;71.80;;;;;;5053889;28;20115;-62
2022/04/30 08:27:43;;;;;;;19.67;16.13;;;13.50;72.00;;;;;;5052334;28;20194;-63
2022/04/30 08:30:10;;;;;;;20.30;16.55;;;13.60;72.10;;;;;;5057098;28;20044;-62
2022/04/30 08:32:36;;;;;;;20.33;15.90;;;13.50;72.20;;;;;;5053223;28;20481;-60
2022/04/30 08:35:02;;;;;;;19.35;16.17;;;13.60;72.00;;;;;;5054646;28;20029;-62
2022/04/30 08:37:29;;;;;;;20.65;15.75;;;13.60;72.10;;;;;;5053065;28;20083;-64
2022/04/30 08:39:55;;;;;;;19.55;16.10;;;13.60;72.30;;;;;;5050485;28;20124;-64
2022/04/30 08:42:23;;;;;;;21.45;16.13;;;13.60;73.40;;;;;;5055303;28;20119;-63
2022/04/30 08:44:49;;;;;;;18.48;15.48;;;13.60;72.70;;;;;;5055736;28;20513;-62
2022/04/30 08:47:14;;;;;;;17.60;14.98;;;13.60;72.30;;;;;;5056840;28;20037;-63
2022/04/30 08:49:42;;;;;;;18.98;14.60;;;13.70;72.10;;;;;;5057705;28;20059;-62
2022/04/30 08:52:09;;;;;;;19.15;15.45;;;13.70;72.10;;;;;;5055614;28;20032;-63
2022/04/30 08:54:35;;;;;;;20.73;16.27;;;13.70;72.00;;;;;;5055825;28;20095;-62
2022/04/30 08:57:01;;;;;;;19.05;15.90;;;13.70;72.20;;;;;;5050247;28;20485;-64
2022/04/30 08:59:29;;;;;;;19.73;15.45;;;13.70;72.40;;;;;;5054962;28;20410;-63
2022/04/30 09:01:58;;;;;;;17.67;15.45;;;13.70;72.40;;;;;;5055696;28;20040;-64
2022/04/30 09:04:41;;;;;;;19.48;15.88;;;13.70;72.60;;;;;;5056127;28;20040;-63
2022/04/30 09:07:13;;;;;;;17.92;14.57;;;13.70;72.50;;;;;;5057868;28;20029;-64
2022/04/30 09:09:39;;;;;;;20.73;15.95;;;13.70;72.60;;;;;;5056190;28;20043;-62
2022/04/30 09:12:13;;;;;;;16.70;14.20;;;13.60;72.20;;;;;;5058647;28;20048;-61
2022/04/30 09:14:40;;;;;;;17.85;14.75;;;13.70;72.50;;;;;;5060171;28;20417;-62
2022/04/30 09:17:16;;;;;;;19.90;14.88;;;13.60;72.10;;;;;;5058992;28;20036;-63
2022/04/30 09:19:51;;;;;;;17.45;14.75;;;13.60;72.50;;;;;;5060245;28;20028;-62
2022/04/30 09:22:38;;;;;;;18.05;14.27;;;13.70;72.50;;;;;;5061958;28;20509;-63
2022/04/30 09:25:12;;;;;;;19.13;15.80;;;13.70;73.20;;;;;;5059540;28;20036;-63
2022/04/30 09:27:51;;;;;;;21.67;17.08;;;13.60;72.10;;;;;;5058670;28;20032;-63
2022/04/30 09:30:31;;;;;;;23.33;17.52;;;13.60;72.30;;;;;;5060957;28;20037;-63
2022/04/30 09:32:58;;;;;;;49.42;35.75;;;13.60;72.50;;;;;;5059233;28;20048;-63
2022/04/30 09:38:07;;;;;;;20.52;16.50;;;13.60;71.80;;;;;;5061913;28;20055;-63
2022/04/30 09:40:33;;;;;;;20.77;16.98;;;13.60;71.70;;;;;;5059564;28;20506;-63
2022/04/30 09:43:01;;;;;;;21.88;19.55;;;13.60;71.80;;;;;;5057638;28;20033;-64
2022/04/30 09:45:33;;;;;;;21.63;14.93;;;13.70;72.00;;;;;;5059313;28;20388;-63
2022/04/30 09:48:00;;;;;;;21.23;15.98;;;13.70;72.00;;;;;;5059456;28;20028;-63
2022/04/30 09:56:08;;;;;;;17.52;14.38;;;13.70;71.70;;;;;;5058850;28;20039;-63
2022/04/30 09:58:38;;;;;;;18.67;14.00;;;13.70;72.00;;;;;;5056353;28;20514;-63
2022/04/30 10:01:05;;;;;;;18.20;14.90;;;13.70;71.90;;;;;;5059471;28;20052;-63
2022/04/30 10:03:33;;;;;;;19.02;14.63;;;13.70;71.80;;;;;;5058978;28;20082;-62
2022/04/30 10:06:04;;;;;;;19.77;16.15;;;13.60;71.90;;;;;;5056467;28;20040;-61
2022/04/30 10:08:35;;;;;;;18.73;15.15;;;13.60;72.40;;;;;;5059313;28;20086;-63
2022/04/30 10:11:17;;;;;;;19.38;15.55;;;13.60;72.70;;;;;;5059071;28;20099;-63
2022/04/30 10:13:58;;;;;;;18.58;15.70;;;13.60;73.20;;;;;;5058689;28;20049;-62
2022/04/30 10:16:26;;;;;;;19.98;16.48;;;13.60;72.80;;;;;;5060487;28;20036;-63
2022/04/30 10:19:11;;;;;;;30.45;21.45;;;13.60;72.60;;;;;;5059366;28;20037;-63
2022/04/30 10:21:37;;;;;;;34.00;25.65;;;13.60;73.20;;;;;;5058351;28;20032;-62
2022/04/30 10:24:05;;;;;;;22.35;17.50;;;13.50;72.80;;;;;;5059508;28;20040;-62
2022/04/30 10:26:30;;;;;;;22.60;17.35;;;13.60;73.00;;;;;;5058818;28;20135;-63
2022/04/30 10:29:13;;;;;;;23.20;17.40;;;13.40;72.80;;;;;;5057431;28;20028;-63
2022/04/30 10:31:44;;;;;;;20.90;16.20;;;13.50;73.30;;;;;;5056469;28;20024;-61
2022/04/30 10:34:10;;;;;;;55.38;32.13;;;13.50;73.30;;;;;;5060632;28;20612;-63
2022/04/30 10:36:38;;;;;;;24.58;18.10;;;13.50;73.20;;;;;;5055243;28;20036;-63
2022/04/30 10:39:09;;;;;;;21.30;17.30;;;13.50;73.30;;;;;;5061008;28;20036;-63
2022/04/30 10:41:45;;;;;;;43.42;27.05;;;13.50;73.20;;;;;;5056681;28;20036;-62
2022/04/30 10:44:13;;;;;;;27.17;19.88;;;13.50;73.80;;;;;;5058849;28;20037;-63
2022/04/30 10:46:45;;;;;;;29.10;20.15;;;13.60;73.50;;;;;;5055848;28;20573;-63
2022/04/30 10:49:11;;;;;;;19.00;16.13;;;13.60;73.60;;;;;;5057857;28;20040;-63
2022/04/30 10:51:43;;;;;;;18.92;16.50;;;13.70;73.50;;;;;;5056999;28;20031;-63
2022/04/30 10:54:18;;;;;;;22.10;17.35;;;13.70;73.70;;;;;;5059423;28;20036;-61
2022/04/30 10:56:44;;;;;;;18.83;15.55;;;13.80;74.20;;;;;;5059280;28;20446;-62
2022/04/30 10:59:10;;;;;;;19.27;16.27;;;13.80;73.90;;;;;;5058650;28;20032;-62
2022/04/30 11:01:47;;;;;;;19.75;16.95;;;13.90;74.00;;;;;;5056408;28;20073;-61
2022/04/30 11:04:17;;;;;;;21.27;17.60;;;14.00;74.00;;;;;;5055602;28;20404;-63
2022/04/30 11:06:43;;;;;;;19.17;15.95;;;14.10;74.00;;;;;;5057124;28;20032;-62
2022/04/30 11:09:09;;;;;;;19.65;15.15;;;14.20;73.60;;;;;;5056510;28;20574;-62
2022/04/30 11:11:37;;;;;;;17.88;15.02;;;14.30;72.90;;;;;;5054730;28;20040;-62
2022/04/30 11:14:08;;;;;;;17.80;15.13;;;14.40;72.60;;;;;;5062247;28;20573;-63
2022/04/30 11:16:35;;;;;;;17.83;15.30;;;14.40;72.20;;;;;;5057612;28;20044;-63
2022/04/30 11:19:05;;;;;;;17.85;14.98;;;14.40;71.90;;;;;;5058193;28;20040;-63
2022/04/30 11:21:36;;;;;;;19.25;15.27;;;14.40;71.90;;;;;;5059429;28;20036;-63
2022/04/30 11:24:03;;;;;;;18.85;14.25;;;14.40;71.80;;;;;;5057091;28;20041;-63
2022/04/30 11:26:30;;;;;;;17.27;14.13;;;14.40;71.30;;;;;;5057177;28;20037;-63
2022/04/30 11:28:57;;;;;;;14.75;13.23;;;14.50;71.10;;;;;;5056165;28;20033;-63
2022/04/30 11:31:23;;;;;;;16.55;13.70;;;14.50;70.80;;;;;;5057924;28;20028;-63
2022/04/30 11:33:49;;;;;;;16.42;13.63;;;14.50;70.50;;;;;;5056697;28;20102;-62
2022/04/30 11:36:14;;;;;;;16.60;13.52;;;14.50;70.00;;;;;;5058513;28;20083;-63
2022/04/30 11:38:52;;;;;;;16.90;13.60;;;14.50;70.10;;;;;;5057922;28;20040;-63
2022/04/30 11:41:18;;;;;;;16.55;13.63;;;14.50;70.00;;;;;;5057294;28;20029;-63
2022/04/30 11:43:44;;;;;;;17.95;13.52;;;14.60;69.70;;;;;;5057542;28;20383;-64
2022/04/30 11:46:09;;;;;;;16.85;14.20;;;14.60;69.60;;;;;;5057092;28;20062;-64
2022/04/30 11:48:39;;;;;;;16.80;14.27;;;14.70;69.20;;;;;;5057037;28;20058;-64
2022/04/30 11:51:08;;;;;;;14.77;13.10;;;14.60;68.50;;;;;;5055725;28;20045;-63
2022/04/30 11:53:35;;;;;;;16.83;13.57;;;14.60;68.60;;;;;;5058746;28;20039;-64
2022/04/30 11:56:02;;;;;;;15.05;13.38;;;14.60;69.10;;;;;;5058043;28;20044;-63
2022/04/30 11:58:43;;;;;;;14.05;12.23;;;14.70;69.70;;;;;;5056383;28;20036;-62
2022/04/30 12:01:21;;;;;;;13.68;11.55;;;14.70;69.70;;;;;;5057059;28;20457;-64
2022/04/30 12:03:56;;;;;;;14.88;12.20;;;14.90;68.90;;;;;;5056428;28;20024;-64
2022/04/30 12:06:24;;;;;;;17.48;11.50;;;15.00;68.30;;;;;;5056953;28;20565;-63
2022/04/30 12:08:50;;;;;;;13.55;11.55;;;15.10;68.20;;;;;;5057207;28;20037;-63
2022/04/30 12:11:16;;;;;;;13.35;11.95;;;15.10;67.60;;;;;;5052970;28;20041;-64
2022/04/30 12:13:42;;;;;;;13.38;11.98;;;15.20;67.10;;;;;;5055170;28;20409;-62
2022/04/30 12:16:08;;;;;;;13.88;11.77;;;15.20;66.40;;;;;;5052907;28;20079;-63
2022/04/30 12:27:02;;;;;;;13.35;11.48;;;15.20;66.00;;;;;;5060851;28;20059;-64
2022/04/30 12:29:30;;;;;;;12.68;11.27;;;15.30;66.60;;;;;;5056867;28;20075;-64
2022/04/30 12:31:56;;;;;;;14.23;11.10;;;15.20;66.20;;;;;;5052567;28;20037;-64
2022/04/30 12:34:22;;;;;;;15.43;11.30;;;15.20;65.50;;;;;;5056492;28;20464;-64
2022/04/30 12:36:52;;;;;;;13.25;11.80;;;15.20;65.80;;;;;;5058507;28;20535;-64
2022/04/30 12:39:22;;;;;;;13.60;12.07;;;15.20;65.40;;;;;;5060441;28;20040;-64
2022/04/30 12:41:48;;;;;;;16.45;11.68;;;15.10;65.90;;;;;;5060035;28;20134;-64
2022/04/30 12:44:13;;;;;;;12.70;11.38;;;15.10;65.80;;;;;;5059849;28;20049;-63
2022/04/30 12:46:46;;;;;;;12.75;11.30;;;15.10;66.00;;;;;;5064991;28;20026;-65
2022/04/30 12:49:15;;;;;;;12.40;10.50;;;15.10;66.30;;;;;;5060441;28;20505;-64
2022/04/30 12:51:42;;;;;;;13.60;11.15;;;15.20;66.00;;;;;;5060411;28;20124;-64
2022/04/30 12:54:12;;;;;;;12.63;10.20;;;15.20;65.90;;;;;;5059250;28;20039;-64
2022/04/30 12:56:39;;;;;;;11.63;10.43;;;15.20;66.60;;;;;;5059078;28;20056;-65
2022/04/30 12:59:05;;;;;;;12.15;10.38;;;15.20;65.70;;;;;;5055166;28;20033;-64
2022/04/30 13:01:33;;;;;;;13.70;11.40;;;15.30;66.70;;;;;;5059062;28;20040;-64
2022/04/30 13:03:58;;;;;;;9.98;8.57;;;15.40;67.00;;;;;;5059560;28;20362;-65
2022/04/30 13:06:24;;;;;;;9.98;8.95;;;15.40;63.80;;;;;;5057985;28;20032;-64
2022/04/30 13:14:19;;;;;;;8.98;7.88;;;15.50;64.10;;;;;;5057892;28;20048;-64
2022/04/30 13:16:44;;;;;;;12.75;10.20;;;15.60;64.30;;;;;;5057028;28;20036;-64